sensor_id;sensor_type;location;lat;lon;timestamp;P1;durP1;ratioP1;P2;durP2;ratioP2
37559;SDS011;23398;50.928;7.084;2023-04-03T00:01:27;1.70;;;1.30;;
37559;SDS011;23398;50.928;7.084;2023-04-03T00:03:53;2.00;;;1.38;;
37559;SDS011;23398;50.928;7.084;2023-04-03T00:06:19;2.75;;;1.40;;
37559;SDS011;23398;50.928;7.084;2023-04-03T00:08:45;1.40;;;1.30;;
37559;SDS011;23398;50.928;7.084;2023-04-03T00:11:11;2.38;;;1.30;;
37559;SDS011;23398;50.928;7.084;2023-04-03T00:13:37;2.13;;;1.40;;
37559;SDS011;23398;50.928;7.084;2023-04-03T00:16:03;1.90;;;1.33;;
37559;SDS011;23398;50.928;7.084;2023-04-03T00:18:30;2.78;;;1.40;;
37559;SDS011;23398;50.928;7.084;2023-04-03T00:20:55;2.17;;;1.30;;
37559;SDS011;23398;50.928;7.084;2023-04-03T00:23:21;2.25;;;1.42;;
37559;SDS011;23398;50.928;7.084;2023-04-03T00:25:48;2.53;;;1.30;;
37559;SDS011;23398;50.928;7.084;2023-04-03T00:28:14;2.42;;;1.45;;
37559;SDS011;23398;50.928;7.084;2023-04-03T00:30:40;1.90;;;1.40;;
37559;SDS011;23398;50.928;7.084;2023-04-03T00:33:06;2.03;;;1.37;;
37559;SDS011;23398;50.928;7.084;2023-04-03T00:35:34;1.80;;;1.42;;
37559;SDS011;23398;50.928;7.084;2023-04-03T00:38:00;2.03;;;1.40;;
37559;SDS011;23398;50.928;7.084;2023-04-03T00:40:26;2.95;;;1.40;;
37559;SDS011;23398;50.928;7.084;2023-04-03T00:42:56;2.57;;;1.40;;
37559;SDS011;23398;50.928;7.084;2023-04-03T00:45:25;2.80;;;1.40;;
37559;SDS011;23398;50.928;7.084;2023-04-03T00:47:57;3.23;;;1.23;;
37559;SDS011;23398;50.928;7.084;2023-04-03T00:50:25;1.90;;;1.40;;
37559;SDS011;23398;50.928;7.084;2023-04-03T00:52:53;2.13;;;1.50;;
37559;SDS011;23398;50.928;7.084;2023-04-03T00:55:19;3.08;;;1.55;;
37559;SDS011;23398;50.928;7.084;2023-04-03T00:57:45;1.50;;;1.35;;
37559;SDS011;23398;50.928;7.084;2023-04-03T01:00:13;2.37;;;1.40;;
37559;SDS011;23398;50.928;7.084;2023-04-03T01:02:42;3.23;;;1.57;;
37559;SDS011;23398;50.928;7.084;2023-04-03T01:05:07;2.38;;;1.25;;
37559;SDS011;23398;50.928;7.084;2023-04-03T01:07:34;1.70;;;1.30;;
37559;SDS011;23398;50.928;7.084;2023-04-03T01:10:03;4.03;;;1.40;;
37559;SDS011;23398;50.928;7.084;2023-04-03T01:12:36;1.80;;;1.17;;
37559;SDS011;23398;50.928;7.084;2023-04-03T01:15:06;1.60;;;1.30;;
37559;SDS011;23398;50.928;7.084;2023-04-03T01:17:38;1.93;;;1.30;;
37559;SDS011;23398;50.928;7.084;2023-04-03T01:26:03;3.00;;;1.10;;
37559;SDS011;23398;50.928;7.084;2023-04-03T01:28:30;2.50;;;1.20;;
37559;SDS011;23398;50.928;7.084;2023-04-03T01:33:37;1.30;;;1.20;;
37559;SDS011;23398;50.928;7.084;2023-04-03T01:36:03;2.07;;;1.30;;
37559;SDS011;23398;50.928;7.084;2023-04-03T01:38:29;1.83;;;1.30;;
37559;SDS011;23398;50.928;7.084;2023-04-03T01:40:55;1.50;;;1.20;;
37559;SDS011;23398;50.928;7.084;2023-04-03T01:43:20;2.00;;;1.40;;
37559;SDS011;23398;50.928;7.084;2023-04-03T01:45:46;2.03;;;1.40;;
37559;SDS011;23398;50.928;7.084;2023-04-03T01:48:14;2.33;;;1.37;;
37559;SDS011;23398;50.928;7.084;2023-04-03T01:50:40;1.60;;;1.27;;
37559;SDS011;23398;50.928;7.084;2023-04-03T01:53:06;2.33;;;1.37;;
37559;SDS011;23398;50.928;7.084;2023-04-03T01:55:31;1.77;;;1.10;;
37559;SDS011;23398;50.928;7.084;2023-04-03T01:57:57;2.23;;;1.40;;
37559;SDS011;23398;50.928;7.084;2023-04-03T02:00:23;2.10;;;1.23;;
37559;SDS011;23398;50.928;7.084;2023-04-03T02:02:49;1.97;;;1.43;;
37559;SDS011;23398;50.928;7.084;2023-04-03T02:05:14;2.03;;;1.17;;
37559;SDS011;23398;50.928;7.084;2023-04-03T02:07:40;1.50;;;1.20;;
37559;SDS011;23398;50.928;7.084;2023-04-03T02:10:06;1.60;;;1.40;;
37559;SDS011;23398;50.928;7.084;2023-04-03T02:12:32;1.60;;;1.30;;
37559;SDS011;23398;50.928;7.084;2023-04-03T02:14:57;1.63;;;1.30;;
37559;SDS011;23398;50.928;7.084;2023-04-03T02:17:23;1.50;;;1.40;;
37559;SDS011;23398;50.928;7.084;2023-04-03T02:19:48;1.40;;;1.30;;
37559;SDS011;23398;50.928;7.084;2023-04-03T02:22:14;1.63;;;1.30;;
37559;SDS011;23398;50.928;7.084;2023-04-03T02:24:40;4.10;;;1.40;;
37559;SDS011;23398;50.928;7.084;2023-04-03T02:27:06;2.37;;;1.50;;
37559;SDS011;23398;50.928;7.084;2023-04-03T02:29:32;2.13;;;1.37;;
37559;SDS011;23398;50.928;7.084;2023-04-03T02:31:57;1.57;;;1.37;;
37559;SDS011;23398;50.928;7.084;2023-04-03T02:34:23;2.73;;;1.37;;
37559;SDS011;23398;50.928;7.084;2023-04-03T02:36:48;2.10;;;1.47;;
37559;SDS011;23398;50.928;7.084;2023-04-03T02:39:14;3.03;;;1.30;;
37559;SDS011;23398;50.928;7.084;2023-04-03T02:41:39;1.40;;;1.20;;
37559;SDS011;23398;50.928;7.084;2023-04-03T02:44:05;1.60;;;1.20;;
37559;SDS011;23398;50.928;7.084;2023-04-03T02:46:32;2.50;;;1.30;;
37559;SDS011;23398;50.928;7.084;2023-04-03T02:48:58;1.67;;;1.30;;
37559;SDS011;23398;50.928;7.084;2023-04-03T02:51:24;2.13;;;1.30;;
37559;SDS011;23398;50.928;7.084;2023-04-03T02:53:50;2.80;;;1.50;;
37559;SDS011;23398;50.928;7.084;2023-04-03T02:56:16;2.20;;;1.20;;
37559;SDS011;23398;50.928;7.084;2023-04-03T02:58:43;1.97;;;1.23;;
37559;SDS011;23398;50.928;7.084;2023-04-03T03:01:09;2.03;;;1.47;;
37559;SDS011;23398;50.928;7.084;2023-04-03T03:03:35;1.60;;;1.33;;
37559;SDS011;23398;50.928;7.084;2023-04-03T03:06:04;2.37;;;1.50;;
37559;SDS011;23398;50.928;7.084;2023-04-03T03:08:34;2.07;;;1.20;;
37559;SDS011;23398;50.928;7.084;2023-04-03T03:11:01;2.00;;;1.50;;
37559;SDS011;23398;50.928;7.084;2023-04-03T03:13:27;1.43;;;1.33;;
37559;SDS011;23398;50.928;7.084;2023-04-03T03:15:53;2.90;;;1.53;;
37559;SDS011;23398;50.928;7.084;2023-04-03T03:18:19;2.57;;;1.60;;
37559;SDS011;23398;50.928;7.084;2023-04-03T03:20:44;3.17;;;1.60;;
37559;SDS011;23398;50.928;7.084;2023-04-03T03:23:10;2.00;;;1.50;;
37559;SDS011;23398;50.928;7.084;2023-04-03T03:25:39;3.33;;;1.57;;
37559;SDS011;23398;50.928;7.084;2023-04-03T03:28:05;2.50;;;1.40;;
37559;SDS011;23398;50.928;7.084;2023-04-03T03:30:31;2.90;;;1.60;;
37559;SDS011;23398;50.928;7.084;2023-04-03T03:32:57;2.17;;;1.60;;
37559;SDS011;23398;50.928;7.084;2023-04-03T03:35:23;1.60;;;1.40;;
37559;SDS011;23398;50.928;7.084;2023-04-03T03:37:48;3.83;;;1.73;;
37559;SDS011;23398;50.928;7.084;2023-04-03T03:40:14;3.57;;;1.90;;
37559;SDS011;23398;50.928;7.084;2023-04-03T03:42:40;2.50;;;1.67;;
37559;SDS011;23398;50.928;7.084;2023-04-03T03:45:06;1.90;;;1.70;;
37559;SDS011;23398;50.928;7.084;2023-04-03T03:47:32;2.10;;;1.60;;
37559;SDS011;23398;50.928;7.084;2023-04-03T03:49:57;3.77;;;1.77;;
37559;SDS011;23398;50.928;7.084;2023-04-03T03:52:23;2.53;;;1.57;;
37559;SDS011;23398;50.928;7.084;2023-04-03T03:54:48;2.53;;;1.50;;
37559;SDS011;23398;50.928;7.084;2023-04-03T03:57:14;2.73;;;1.60;;
37559;SDS011;23398;50.928;7.084;2023-04-03T03:59:40;2.00;;;1.80;;
37559;SDS011;23398;50.928;7.084;2023-04-03T04:02:06;7.33;;;1.97;;
37559;SDS011;23398;50.928;7.084;2023-04-03T04:04:32;2.43;;;1.67;;
37559;SDS011;23398;50.928;7.084;2023-04-03T04:06:58;3.03;;;1.80;;
37559;SDS011;23398;50.928;7.084;2023-04-03T04:09:25;2.83;;;1.80;;
37559;SDS011;23398;50.928;7.084;2023-04-03T04:11:51;2.10;;;1.30;;
37559;SDS011;23398;50.928;7.084;2023-04-03T04:14:17;6.17;;;1.67;;
37559;SDS011;23398;50.928;7.084;2023-04-03T04:16:43;2.87;;;1.50;;
37559;SDS011;23398;50.928;7.084;2023-04-03T04:19:08;2.53;;;1.60;;
37559;SDS011;23398;50.928;7.084;2023-04-03T04:21:34;2.20;;;1.57;;
37559;SDS011;23398;50.928;7.084;2023-04-03T04:24:00;2.23;;;1.50;;
37559;SDS011;23398;50.928;7.084;2023-04-03T04:26:26;2.10;;;1.40;;
37559;SDS011;23398;50.928;7.084;2023-04-03T04:28:51;5.23;;;1.80;;
37559;SDS011;23398;50.928;7.084;2023-04-03T04:31:17;2.93;;;1.60;;
37559;SDS011;23398;50.928;7.084;2023-04-03T04:33:42;3.00;;;1.57;;
37559;SDS011;23398;50.928;7.084;2023-04-03T04:36:08;4.17;;;1.70;;
37559;SDS011;23398;50.928;7.084;2023-04-03T04:38:33;1.90;;;1.30;;
37559;SDS011;23398;50.928;7.084;2023-04-03T04:40:59;2.50;;;1.50;;
37559;SDS011;23398;50.928;7.084;2023-04-03T04:43:25;2.03;;;1.40;;
37559;SDS011;23398;50.928;7.084;2023-04-03T04:45:59;2.93;;;1.30;;
37559;SDS011;23398;50.928;7.084;2023-04-03T04:48:29;3.73;;;1.30;;
37559;SDS011;23398;50.928;7.084;2023-04-03T04:50:55;2.87;;;1.50;;
37559;SDS011;23398;50.928;7.084;2023-04-03T04:53:20;2.93;;;1.60;;
37559;SDS011;23398;50.928;7.084;2023-04-03T04:55:46;2.13;;;1.30;;
37559;SDS011;23398;50.928;7.084;2023-04-03T04:58:12;2.10;;;1.33;;
37559;SDS011;23398;50.928;7.084;2023-04-03T05:00:38;2.57;;;1.67;;
37559;SDS011;23398;50.928;7.084;2023-04-03T05:03:03;4.63;;;1.60;;
37559;SDS011;23398;50.928;7.084;2023-04-03T05:05:29;2.80;;;1.50;;
37559;SDS011;23398;50.928;7.084;2023-04-03T05:07:55;2.57;;;1.50;;
37559;SDS011;23398;50.928;7.084;2023-04-03T05:10:20;2.10;;;1.47;;
37559;SDS011;23398;50.928;7.084;2023-04-03T05:12:46;4.03;;;1.50;;
37559;SDS011;23398;50.928;7.084;2023-04-03T05:15:11;2.03;;;1.60;;
37559;SDS011;23398;50.928;7.084;2023-04-03T05:17:37;2.37;;;1.80;;
37559;SDS011;23398;50.928;7.084;2023-04-03T05:20:03;3.53;;;1.50;;
37559;SDS011;23398;50.928;7.084;2023-04-03T05:22:29;2.87;;;1.40;;
37559;SDS011;23398;50.928;7.084;2023-04-03T05:24:55;2.37;;;1.73;;
37559;SDS011;23398;50.928;7.084;2023-04-03T05:27:21;2.17;;;1.40;;
37559;SDS011;23398;50.928;7.084;2023-04-03T05:29:48;1.63;;;1.20;;
37559;SDS011;23398;50.928;7.084;2023-04-03T05:32:15;2.87;;;1.50;;
37559;SDS011;23398;50.928;7.084;2023-04-03T05:34:41;3.17;;;1.50;;
37559;SDS011;23398;50.928;7.084;2023-04-03T05:37:06;2.37;;;1.40;;
37559;SDS011;23398;50.928;7.084;2023-04-03T05:39:32;3.03;;;1.43;;
37559;SDS011;23398;50.928;7.084;2023-04-03T05:41:58;3.23;;;1.40;;
37559;SDS011;23398;50.928;7.084;2023-04-03T05:44:23;2.93;;;1.40;;
37559;SDS011;23398;50.928;7.084;2023-04-03T05:46:49;2.73;;;1.50;;
37559;SDS011;23398;50.928;7.084;2023-04-03T05:49:15;1.47;;;1.20;;
37559;SDS011;23398;50.928;7.084;2023-04-03T05:51:40;3.20;;;1.50;;
37559;SDS011;23398;50.928;7.084;2023-04-03T05:54:09;2.63;;;1.23;;
37559;SDS011;23398;50.928;7.084;2023-04-03T05:56:40;2.07;;;1.50;;
37559;SDS011;23398;50.928;7.084;2023-04-03T05:59:06;2.13;;;1.40;;
37559;SDS011;23398;50.928;7.084;2023-04-03T06:01:32;3.73;;;1.43;;
37559;SDS011;23398;50.928;7.084;2023-04-03T06:03:59;2.30;;;1.23;;
37559;SDS011;23398;50.928;7.084;2023-04-03T06:06:25;2.20;;;1.50;;
37559;SDS011;23398;50.928;7.084;2023-04-03T06:08:50;3.07;;;1.47;;
37559;SDS011;23398;50.928;7.084;2023-04-03T06:11:16;1.83;;;1.20;;
37559;SDS011;23398;50.928;7.084;2023-04-03T06:13:42;1.70;;;1.10;;
37559;SDS011;23398;50.928;7.084;2023-04-03T06:16:13;1.77;;;1.30;;
37559;SDS011;23398;50.928;7.084;2023-04-03T06:18:42;2.80;;;1.20;;
37559;SDS011;23398;50.928;7.084;2023-04-03T06:21:07;1.80;;;1.30;;
37559;SDS011;23398;50.928;7.084;2023-04-03T06:23:33;3.17;;;1.30;;
37559;SDS011;23398;50.928;7.084;2023-04-03T06:25:58;2.50;;;1.30;;
37559;SDS011;23398;50.928;7.084;2023-04-03T06:28:25;2.60;;;1.30;;
37559;SDS011;23398;50.928;7.084;2023-04-03T06:30:51;2.60;;;1.27;;
37559;SDS011;23398;50.928;7.084;2023-04-03T06:33:16;2.60;;;1.30;;
37559;SDS011;23398;50.928;7.084;2023-04-03T06:35:42;2.63;;;1.30;;
37559;SDS011;23398;50.928;7.084;2023-04-03T06:38:07;4.07;;;1.40;;
37559;SDS011;23398;50.928;7.084;2023-04-03T06:40:34;3.00;;;1.20;;
37559;SDS011;23398;50.928;7.084;2023-04-03T06:43:00;2.17;;;1.17;;
37559;SDS011;23398;50.928;7.084;2023-04-03T06:45:26;2.73;;;1.20;;
37559;SDS011;23398;50.928;7.084;2023-04-03T06:47:52;3.07;;;1.20;;
37559;SDS011;23398;50.928;7.084;2023-04-03T06:50:18;2.00;;;1.30;;
37559;SDS011;23398;50.928;7.084;2023-04-03T06:52:44;3.20;;;1.30;;
37559;SDS011;23398;50.928;7.084;2023-04-03T06:55:09;1.73;;;1.40;;
37559;SDS011;23398;50.928;7.084;2023-04-03T06:57:36;2.42;;;1.40;;
37559;SDS011;23398;50.928;7.084;2023-04-03T07:00:02;2.42;;;1.30;;
37559;SDS011;23398;50.928;7.084;2023-04-03T07:02:29;2.65;;;1.45;;
37559;SDS011;23398;50.928;7.084;2023-04-03T07:04:54;2.83;;;1.10;;
37559;SDS011;23398;50.928;7.084;2023-04-03T07:07:20;2.28;;;1.20;;
37559;SDS011;23398;50.928;7.084;2023-04-03T07:09:46;2.25;;;1.23;;
37559;SDS011;23398;50.928;7.084;2023-04-03T07:12:12;2.20;;;1.27;;
37559;SDS011;23398;50.928;7.084;2023-04-03T07:14:38;4.57;;;1.50;;
37559;SDS011;23398;50.928;7.084;2023-04-03T07:17:04;2.47;;;1.08;;
37559;SDS011;23398;50.928;7.084;2023-04-03T07:19:30;2.88;;;1.15;;
37559;SDS011;23398;50.928;7.084;2023-04-03T07:21:56;2.25;;;1.23;;
37559;SDS011;23398;50.928;7.084;2023-04-03T07:24:22;3.15;;;1.40;;
37559;SDS011;23398;50.928;7.084;2023-04-03T07:26:50;2.92;;;1.30;;
37559;SDS011;23398;50.928;7.084;2023-04-03T07:29:17;2.38;;;1.35;;
37559;SDS011;23398;50.928;7.084;2023-04-03T07:31:43;2.10;;;1.30;;
37559;SDS011;23398;50.928;7.084;2023-04-03T07:34:09;2.83;;;1.38;;
37559;SDS011;23398;50.928;7.084;2023-04-03T07:36:36;1.85;;;1.20;;
37559;SDS011;23398;50.928;7.084;2023-04-03T07:39:02;2.80;;;1.33;;
37559;SDS011;23398;50.928;7.084;2023-04-03T07:41:28;1.65;;;1.20;;
37559;SDS011;23398;50.928;7.084;2023-04-03T07:43:55;6.65;;;1.55;;
37559;SDS011;23398;50.928;7.084;2023-04-03T07:46:21;2.60;;;1.35;;
37559;SDS011;23398;50.928;7.084;2023-04-03T07:48:47;2.13;;;1.23;;
37559;SDS011;23398;50.928;7.084;2023-04-03T07:51:12;1.90;;;1.20;;
37559;SDS011;23398;50.928;7.084;2023-04-03T07:53:38;3.47;;;1.63;;
37559;SDS011;23398;50.928;7.084;2023-04-03T07:56:04;1.85;;;1.10;;
37559;SDS011;23398;50.928;7.084;2023-04-03T07:58:30;3.70;;;1.27;;
37559;SDS011;23398;50.928;7.084;2023-04-03T08:00:55;2.30;;;1.15;;
37559;SDS011;23398;50.928;7.084;2023-04-03T08:03:22;2.05;;;1.30;;
37559;SDS011;23398;50.928;7.084;2023-04-03T08:05:48;1.83;;;1.10;;
37559;SDS011;23398;50.928;7.084;2023-04-03T08:08:16;1.73;;;1.10;;
37559;SDS011;23398;50.928;7.084;2023-04-03T08:10:45;2.03;;;1.00;;
37559;SDS011;23398;50.928;7.084;2023-04-03T08:13:15;2.60;;;1.05;;
37559;SDS011;23398;50.928;7.084;2023-04-03T08:15:40;2.80;;;1.33;;
37559;SDS011;23398;50.928;7.084;2023-04-03T08:18:06;2.60;;;1.20;;
37559;SDS011;23398;50.928;7.084;2023-04-03T08:20:32;2.72;;;1.48;;
37559;SDS011;23398;50.928;7.084;2023-04-03T08:22:57;2.40;;;1.27;;
37559;SDS011;23398;50.928;7.084;2023-04-03T08:25:23;2.95;;;1.55;;
37559;SDS011;23398;50.928;7.084;2023-04-03T08:27:49;5.18;;;2.35;;
37559;SDS011;23398;50.928;7.084;2023-04-03T08:30:15;1.90;;;1.52;;
37559;SDS011;23398;50.928;7.084;2023-04-03T08:32:41;2.50;;;1.35;;
37559;SDS011;23398;50.928;7.084;2023-04-03T08:35:08;2.63;;;1.33;;
37559;SDS011;23398;50.928;7.084;2023-04-03T08:37:37;1.65;;;1.20;;
37559;SDS011;23398;50.928;7.084;2023-04-03T08:40:07;2.17;;;1.20;;
37559;SDS011;23398;50.928;7.084;2023-04-03T08:48:24;3.08;;;1.23;;
37559;SDS011;23398;50.928;7.084;2023-04-03T08:50:58;1.60;;;1.10;;
37559;SDS011;23398;50.928;7.084;2023-04-03T08:53:28;2.67;;;1.20;;
37559;SDS011;23398;50.928;7.084;2023-04-03T08:55:57;2.13;;;1.30;;
37559;SDS011;23398;50.928;7.084;2023-04-03T08:58:28;1.98;;;1.25;;
37559;SDS011;23398;50.928;7.084;2023-04-03T09:01:06;2.60;;;1.30;;
37559;SDS011;23398;50.928;7.084;2023-04-03T09:03:41;1.48;;;1.05;;
37559;SDS011;23398;50.928;7.084;2023-04-03T09:06:08;1.52;;;1.15;;
37559;SDS011;23398;50.928;7.084;2023-04-03T09:08:37;2.05;;;1.20;;
37559;SDS011;23398;50.928;7.084;2023-04-03T09:11:16;1.92;;;1.08;;
37559;SDS011;23398;50.928;7.084;2023-04-03T09:13:52;3.20;;;1.13;;
37559;SDS011;23398;50.928;7.084;2023-04-03T09:19:10;1.90;;;1.00;;
37559;SDS011;23398;50.928;7.084;2023-04-03T09:21:46;2.00;;;1.20;;
37559;SDS011;23398;50.928;7.084;2023-04-03T09:24:13;1.35;;;1.00;;
37559;SDS011;23398;50.928;7.084;2023-04-03T09:26:55;1.80;;;1.02;;
37559;SDS011;23398;50.928;7.084;2023-04-03T09:29:24;1.73;;;1.02;;
37559;SDS011;23398;50.928;7.084;2023-04-03T09:31:56;1.02;;;0.90;;
37559;SDS011;23398;50.928;7.084;2023-04-03T09:34:28;1.60;;;1.10;;
37559;SDS011;23398;50.928;7.084;2023-04-03T09:36:59;1.38;;;1.10;;
37559;SDS011;23398;50.928;7.084;2023-04-03T09:39:30;1.50;;;1.10;;
37559;SDS011;23398;50.928;7.084;2023-04-03T09:44:36;2.08;;;1.10;;
37559;SDS011;23398;50.928;7.084;2023-04-03T09:47:19;2.00;;;1.02;;
37559;SDS011;23398;50.928;7.084;2023-04-03T09:49:48;2.30;;;1.17;;
37559;SDS011;23398;50.928;7.084;2023-04-03T09:52:24;1.67;;;1.17;;
37559;SDS011;23398;50.928;7.084;2023-04-03T09:54:51;2.40;;;1.10;;
37559;SDS011;23398;50.928;7.084;2023-04-03T09:57:17;1.48;;;1.00;;
37559;SDS011;23398;50.928;7.084;2023-04-03T09:59:45;1.98;;;1.20;;
37559;SDS011;23398;50.928;7.084;2023-04-03T10:10:38;1.95;;;1.20;;
37559;SDS011;23398;50.928;7.084;2023-04-03T10:13:06;1.83;;;1.00;;
37559;SDS011;23398;50.928;7.084;2023-04-03T10:15:39;2.03;;;1.10;;
37559;SDS011;23398;50.928;7.084;2023-04-03T10:18:22;2.13;;;1.00;;
37559;SDS011;23398;50.928;7.084;2023-04-03T10:21:04;1.10;;;0.80;;
37559;SDS011;23398;50.928;7.084;2023-04-03T10:23:45;1.80;;;1.15;;
37559;SDS011;23398;50.928;7.084;2023-04-03T10:26:25;1.23;;;0.93;;
37559;SDS011;23398;50.928;7.084;2023-04-03T10:29:02;1.42;;;0.90;;
37559;SDS011;23398;50.928;7.084;2023-04-03T10:32:02;1.25;;;0.93;;
37559;SDS011;23398;50.928;7.084;2023-04-03T10:34:44;3.00;;;0.95;;
37559;SDS011;23398;50.928;7.084;2023-04-03T10:37:20;2.15;;;1.27;;
37559;SDS011;23398;50.928;7.084;2023-04-03T10:39:57;1.55;;;1.10;;
37559;SDS011;23398;50.928;7.084;2023-04-03T10:53:44;1.23;;;1.00;;
37559;SDS011;23398;50.928;7.084;2023-04-03T10:56:36;1.17;;;0.98;;
37559;SDS011;23398;50.928;7.084;2023-04-03T10:59:29;2.38;;;1.17;;
37559;SDS011;23398;50.928;7.084;2023-04-03T11:02:24;2.90;;;1.58;;
37559;SDS011;23398;50.928;7.084;2023-04-03T11:05:03;2.53;;;1.30;;
37559;SDS011;23398;50.928;7.084;2023-04-03T11:07:50;4.60;;;1.80;;
37559;SDS011;23398;50.928;7.084;2023-04-03T11:10:25;2.22;;;1.27;;
37559;SDS011;23398;50.928;7.084;2023-04-03T11:13:08;2.47;;;1.45;;
37559;SDS011;23398;50.928;7.084;2023-04-03T11:15:40;2.03;;;1.13;;
37559;SDS011;23398;50.928;7.084;2023-04-03T11:18:19;3.50;;;1.55;;
37559;SDS011;23398;50.928;7.084;2023-04-03T11:21:11;1.67;;;1.00;;
37559;SDS011;23398;50.928;7.084;2023-04-03T11:23:41;2.17;;;1.20;;
37559;SDS011;23398;50.928;7.084;2023-04-03T11:26:14;2.38;;;1.27;;
37559;SDS011;23398;50.928;7.084;2023-04-03T11:28:45;2.58;;;1.40;;
37559;SDS011;23398;50.928;7.084;2023-04-03T11:37:04;1.63;;;0.95;;
37559;SDS011;23398;50.928;7.084;2023-04-03T11:39:36;1.60;;;0.90;;
37559;SDS011;23398;50.928;7.084;2023-04-03T11:42:22;1.30;;;0.95;;
37559;SDS011;23398;50.928;7.084;2023-04-03T11:47:52;1.40;;;0.82;;
37559;SDS011;23398;50.928;7.084;2023-04-03T11:50:38;1.15;;;0.80;;
37559;SDS011;23398;50.928;7.084;2023-04-03T11:58:25;2.00;;;0.80;;
37559;SDS011;23398;50.928;7.084;2023-04-03T12:00:55;1.45;;;0.90;;
37559;SDS011;23398;50.928;7.084;2023-04-03T12:05:53;0.98;;;0.80;;
37559;SDS011;23398;50.928;7.084;2023-04-03T12:13:34;1.95;;;0.80;;
37559;SDS011;23398;50.928;7.084;2023-04-03T12:16:02;1.00;;;0.85;;
37559;SDS011;23398;50.928;7.084;2023-04-03T12:18:40;2.20;;;0.90;;
37559;SDS011;23398;50.928;7.084;2023-04-03T12:21:09;1.38;;;0.80;;
37559;SDS011;23398;50.928;7.084;2023-04-03T12:23:56;1.05;;;0.88;;
37559;SDS011;23398;50.928;7.084;2023-04-03T12:26:48;1.67;;;1.00;;
37559;SDS011;23398;50.928;7.084;2023-04-03T12:29:38;1.95;;;1.00;;
37559;SDS011;23398;50.928;7.084;2023-04-03T12:32:32;0.90;;;0.80;;
37559;SDS011;23398;50.928;7.084;2023-04-03T12:35:21;1.38;;;0.90;;
37559;SDS011;23398;50.928;7.084;2023-04-03T12:40:59;1.90;;;0.80;;
37559;SDS011;23398;50.928;7.084;2023-04-03T12:46:51;0.70;;;0.60;;
37559;SDS011;23398;50.928;7.084;2023-04-03T12:49:30;1.75;;;0.80;;
37559;SDS011;23398;50.928;7.084;2023-04-03T12:52:05;0.90;;;0.73;;
37559;SDS011;23398;50.928;7.084;2023-04-03T12:54:47;1.58;;;1.00;;
37559;SDS011;23398;50.928;7.084;2023-04-03T12:59:40;0.85;;;0.80;;
37559;SDS011;23398;50.928;7.084;2023-04-03T13:04:48;1.10;;;0.88;;
37559;SDS011;23398;50.928;7.084;2023-04-03T13:07:47;1.50;;;0.90;;
37559;SDS011;23398;50.928;7.084;2023-04-03T13:12:47;1.30;;;1.00;;
37559;SDS011;23398;50.928;7.084;2023-04-03T13:15:17;0.80;;;0.73;;
37559;SDS011;23398;50.928;7.084;2023-04-03T13:17:48;1.95;;;0.90;;
37559;SDS011;23398;50.928;7.084;2023-04-03T13:20:24;2.25;;;0.88;;
37559;SDS011;23398;50.928;7.084;2023-04-03T13:25:22;1.48;;;0.98;;
37559;SDS011;23398;50.928;7.084;2023-04-03T13:27:49;2.35;;;1.05;;
37559;SDS011;23398;50.928;7.084;2023-04-03T13:30:32;1.08;;;0.90;;
37559;SDS011;23398;50.928;7.084;2023-04-03T13:33:02;1.20;;;0.80;;
37559;SDS011;23398;50.928;7.084;2023-04-03T13:35:31;2.30;;;1.00;;
37559;SDS011;23398;50.928;7.084;2023-04-03T13:38:00;1.52;;;0.90;;
37559;SDS011;23398;50.928;7.084;2023-04-03T13:40:30;1.58;;;0.95;;
37559;SDS011;23398;50.928;7.084;2023-04-03T13:43:00;1.52;;;1.10;;
37559;SDS011;23398;50.928;7.084;2023-04-03T13:45:29;1.58;;;1.10;;
37559;SDS011;23398;50.928;7.084;2023-04-03T13:51:00;1.27;;;1.08;;
37559;SDS011;23398;50.928;7.084;2023-04-03T13:53:28;1.67;;;1.02;;
37559;SDS011;23398;50.928;7.084;2023-04-03T13:56:00;2.58;;;1.10;;
37559;SDS011;23398;50.928;7.084;2023-04-03T13:58:34;1.48;;;1.00;;
37559;SDS011;23398;50.928;7.084;2023-04-03T14:03:55;1.48;;;1.00;;
37559;SDS011;23398;50.928;7.084;2023-04-03T14:06:22;2.40;;;1.00;;
37559;SDS011;23398;50.928;7.084;2023-04-03T14:08:48;2.10;;;1.10;;
37559;SDS011;23398;50.928;7.084;2023-04-03T14:11:16;1.35;;;1.10;;
37559;SDS011;23398;50.928;7.084;2023-04-03T14:13:45;1.73;;;1.10;;
37559;SDS011;23398;50.928;7.084;2023-04-03T14:16:13;2.95;;;0.90;;
37559;SDS011;23398;50.928;7.084;2023-04-03T14:18:41;2.25;;;1.05;;
37559;SDS011;23398;50.928;7.084;2023-04-03T14:21:09;1.95;;;1.00;;
37559;SDS011;23398;50.928;7.084;2023-04-03T14:23:37;1.95;;;1.10;;
37559;SDS011;23398;50.928;7.084;2023-04-03T14:26:02;2.10;;;0.98;;
37559;SDS011;23398;50.928;7.084;2023-04-03T14:28:31;2.35;;;1.10;;
37559;SDS011;23398;50.928;7.084;2023-04-03T14:30:57;1.27;;;0.80;;
37559;SDS011;23398;50.928;7.084;2023-04-03T14:33:23;1.10;;;1.00;;
37559;SDS011;23398;50.928;7.084;2023-04-03T14:35:48;1.80;;;1.15;;
37559;SDS011;23398;50.928;7.084;2023-04-03T14:40:48;2.40;;;1.00;;
37559;SDS011;23398;50.928;7.084;2023-04-03T14:43:13;1.92;;;1.13;;
37559;SDS011;23398;50.928;7.084;2023-04-03T14:45:40;1.88;;;1.00;;
37559;SDS011;23398;50.928;7.084;2023-04-03T14:48:06;1.42;;;1.00;;
37559;SDS011;23398;50.928;7.084;2023-04-03T14:50:34;1.33;;;1.02;;
37559;SDS011;23398;50.928;7.084;2023-04-03T14:53:00;1.30;;;1.00;;
37559;SDS011;23398;50.928;7.084;2023-04-03T14:55:26;1.17;;;0.88;;
37559;SDS011;23398;50.928;7.084;2023-04-03T14:57:52;1.35;;;0.90;;
37559;SDS011;23398;50.928;7.084;2023-04-03T15:00:20;1.70;;;1.15;;
37559;SDS011;23398;50.928;7.084;2023-04-03T15:02:46;1.38;;;1.00;;
37559;SDS011;23398;50.928;7.084;2023-04-03T15:05:13;2.35;;;1.10;;
37559;SDS011;23398;50.928;7.084;2023-04-03T15:07:45;1.95;;;1.15;;
37559;SDS011;23398;50.928;7.084;2023-04-03T15:12:45;1.90;;;1.13;;
37559;SDS011;23398;50.928;7.084;2023-04-03T15:15:12;2.28;;;1.10;;
37559;SDS011;23398;50.928;7.084;2023-04-03T15:17:38;1.15;;;0.95;;
37559;SDS011;23398;50.928;7.084;2023-04-03T15:20:06;1.80;;;1.00;;
37559;SDS011;23398;50.928;7.084;2023-04-03T15:22:38;1.90;;;1.10;;
37559;SDS011;23398;50.928;7.084;2023-04-03T15:25:04;1.40;;;0.90;;
37559;SDS011;23398;50.928;7.084;2023-04-03T15:27:30;1.80;;;1.00;;
37559;SDS011;23398;50.928;7.084;2023-04-03T15:29:55;1.48;;;0.82;;
37559;SDS011;23398;50.928;7.084;2023-04-03T15:32:21;2.30;;;1.05;;
37559;SDS011;23398;50.928;7.084;2023-04-03T15:34:47;1.30;;;0.80;;
37559;SDS011;23398;50.928;7.084;2023-04-03T15:37:12;1.50;;;1.10;;
37559;SDS011;23398;50.928;7.084;2023-04-03T15:39:38;2.30;;;1.30;;
37559;SDS011;23398;50.928;7.084;2023-04-03T15:42:03;1.60;;;1.10;;
37559;SDS011;23398;50.928;7.084;2023-04-03T15:44:31;1.30;;;1.00;;
37559;SDS011;23398;50.928;7.084;2023-04-03T15:46:58;2.17;;;0.90;;
37559;SDS011;23398;50.928;7.084;2023-04-03T15:49:24;2.03;;;1.20;;
37559;SDS011;23398;50.928;7.084;2023-04-03T15:51:51;1.65;;;0.90;;
37559;SDS011;23398;50.928;7.084;2023-04-03T15:54:17;1.90;;;1.10;;
37559;SDS011;23398;50.928;7.084;2023-04-03T15:56:42;1.75;;;1.00;;
37559;SDS011;23398;50.928;7.084;2023-04-03T15:59:08;2.05;;;1.10;;
37559;SDS011;23398;50.928;7.084;2023-04-03T16:01:34;2.45;;;1.00;;
37559;SDS011;23398;50.928;7.084;2023-04-03T16:04:01;1.88;;;1.10;;
37559;SDS011;23398;50.928;7.084;2023-04-03T16:06:26;2.22;;;1.00;;
37559;SDS011;23398;50.928;7.084;2023-04-03T16:08:54;2.60;;;1.20;;
37559;SDS011;23398;50.928;7.084;2023-04-03T16:11:23;1.83;;;1.15;;
37559;SDS011;23398;50.928;7.084;2023-04-03T16:13:50;1.38;;;1.08;;
37559;SDS011;23398;50.928;7.084;2023-04-03T16:16:15;1.17;;;0.90;;
37559;SDS011;23398;50.928;7.084;2023-04-03T16:18:41;1.67;;;1.02;;
37559;SDS011;23398;50.928;7.084;2023-04-03T16:21:07;1.70;;;0.98;;
37559;SDS011;23398;50.928;7.084;2023-04-03T16:23:33;1.80;;;1.13;;
37559;SDS011;23398;50.928;7.084;2023-04-03T16:25:59;1.40;;;0.98;;